createdAt,value
2022-08-17T00:00:44.029Z,18.85
2022-08-17T00:05:52.823Z,19.17
2022-08-17T00:10:55.655Z,19.34
2022-08-17T00:16:02.886Z,19.42
2022-08-17T00:21:10.603Z,19.45
2022-08-17T00:26:13.091Z,19.23
2022-08-17T00:31:16.169Z,19.10
2022-08-17T00:36:18.926Z,19.05
2022-08-17T00:41:24.225Z,18.94
2022-08-17T00:46:31.253Z,18.99
2022-08-17T00:51:44.286Z,19.00
2022-08-17T00:56:54.005Z,18.94
2022-08-17T01:01:55.765Z,18.59
2022-08-17T01:07:00.739Z,18.43
2022-08-17T01:12:03.196Z,18.39
2022-08-17T01:17:05.894Z,18.21
2022-08-17T01:22:14.483Z,18.42
2022-08-17T01:27:18.502Z,18.50
2022-08-17T01:32:22.292Z,18.45
2022-08-17T01:37:34.525Z,18.44
2022-08-17T01:42:56.854Z,18.34
2022-08-17T01:47:58.726Z,18.01
2022-08-17T01:53:05.293Z,18.00
2022-08-17T01:58:09.865Z,18.13
2022-08-17T02:03:12.924Z,18.23
2022-08-17T02:08:20.377Z,18.28
2022-08-17T02:13:22.666Z,18.28
2022-08-17T02:18:25.811Z,18.25
2022-08-17T02:23:30.465Z,18.30
2022-08-17T02:28:32.191Z,18.34
2022-08-17T02:33:43.012Z,18.31
2022-08-17T02:38:45.331Z,18.30
2022-08-17T02:43:47.072Z,17.88
2022-08-17T02:48:48.901Z,17.83
2022-08-17T02:53:50.911Z,17.96
2022-08-17T02:58:52.584Z,18.00
2022-08-17T03:03:54.284Z,18.10
2022-08-17T03:08:55.941Z,18.14
2022-08-17T03:13:58.593Z,18.24
2022-08-17T03:19:00.277Z,18.18
2022-08-17T03:24:02.340Z,18.07
2022-08-17T03:29:10.572Z,18.05
2022-08-17T03:34:12.941Z,17.92
2022-08-17T03:39:14.629Z,17.97
2022-08-17T03:44:16.311Z,17.93
2022-08-17T03:49:36.869Z,17.67
2022-08-17T03:54:57.403Z,17.77
2022-08-17T03:59:59.862Z,17.92
2022-08-17T04:05:01.877Z,17.98
2022-08-17T04:10:04.298Z,17.93
2022-08-17T04:15:06.814Z,17.76
2022-08-17T04:20:09.093Z,17.74
2022-08-17T04:25:18.439Z,17.74
2022-08-17T04:30:20.308Z,17.80
2022-08-17T04:35:26.234Z,17.90
2022-08-17T04:40:46.873Z,17.69
2022-08-17T04:45:56.296Z,17.79
2022-08-17T04:50:59.221Z,17.54
2022-08-17T04:56:01.018Z,17.92
2022-08-17T05:01:03.266Z,18.11
2022-08-17T05:06:05.464Z,18.28
2022-08-17T05:11:08.330Z,18.32
2022-08-17T05:16:10.212Z,18.29
2022-08-17T05:21:12.462Z,18.27
2022-08-17T05:26:19.844Z,18.78
2022-08-17T05:31:29.523Z,19.44
2022-08-17T05:36:38.116Z,19.55
2022-08-17T05:41:48.027Z,19.56
2022-08-17T05:46:52.131Z,19.58
2022-08-17T05:52:06.017Z,19.17
2022-08-17T05:57:31.626Z,19.18
2022-08-17T06:02:50.880Z,19.26
2022-08-17T06:08:14.316Z,19.40
2022-08-17T06:13:43.847Z,19.55
2022-08-17T06:18:56.185Z,19.60
2022-08-17T06:24:07.248Z,19.88
2022-08-17T06:29:27.232Z,19.95
2022-08-17T06:34:29.980Z,20.40
2022-08-17T06:39:43.941Z,21.08
2022-08-17T06:44:51.181Z,21.46
2022-08-17T06:50:17.760Z,21.66
2022-08-17T06:55:46.453Z,21.73
2022-08-17T07:00:54.108Z,21.84
2022-08-17T07:06:06.447Z,21.72
2022-08-17T07:11:13.105Z,21.42
2022-08-17T07:16:23.815Z,21.97
2022-08-17T07:21:43.597Z,22.07
2022-08-17T07:26:49.702Z,22.14
2022-08-17T07:31:55.434Z,22.03
2022-08-17T07:37:05.338Z,22.04
2022-08-17T07:42:06.909Z,21.34
2022-08-17T07:47:35.131Z,21.74
2022-08-17T07:52:51.345Z,21.79
2022-08-17T07:57:58.595Z,21.96
2022-08-17T08:03:14.901Z,21.88
2022-08-17T08:08:27.203Z,21.97
2022-08-17T08:13:30.268Z,21.92
2022-08-17T08:18:54.883Z,21.72
2022-08-17T08:24:24.169Z,21.78
2022-08-17T08:29:54.475Z,21.81
2022-08-17T08:35:26.715Z,21.92
2022-08-17T08:40:46.486Z,22.20
2022-08-17T08:45:57.957Z,22.29
2022-08-17T08:51:22.332Z,22.91
2022-08-17T08:57:23.912Z,23.26
2022-08-17T09:03:03.892Z,23.64
2022-08-17T09:08:11.644Z,23.74
2022-08-17T09:13:28.531Z,23.83
2022-08-17T09:19:02.629Z,23.54
2022-08-17T09:24:02.434Z,23.62
2022-08-17T09:29:09.994Z,23.61
2022-08-17T09:34:16.712Z,23.60
2022-08-17T09:39:33.241Z,23.65
2022-08-17T09:44:52.005Z,23.98
2022-08-17T09:50:01.710Z,24.09
2022-08-17T09:55:05.690Z,23.85
2022-08-17T10:00:10.082Z,23.75
2022-08-17T10:05:21.989Z,24.01
2022-08-17T10:11:00.077Z,24.31
2022-08-17T10:16:16.563Z,24.43
2022-08-17T10:21:39.391Z,24.58
2022-08-17T10:26:56.730Z,24.37
2022-08-17T10:32:07.136Z,23.99
2022-08-17T10:37:41.271Z,23.96
2022-08-17T10:43:00.276Z,23.82
2022-08-17T10:48:24.487Z,23.60
2022-08-17T10:53:50.420Z,23.31
2022-08-17T10:58:57.922Z,23.30
2022-08-17T11:04:21.443Z,23.80
2022-08-17T11:09:48.146Z,23.86
2022-08-17T11:15:22.246Z,23.73
2022-08-17T11:20:38.135Z,24.21
2022-08-17T11:25:45.145Z,24.99
2022-08-17T11:30:54.605Z,25.70
2022-08-17T11:36:34.594Z,26.40
2022-08-17T11:42:17.992Z,26.46
2022-08-17T11:47:57.015Z,26.81
2022-08-17T11:53:06.538Z,27.22
2022-08-17T11:58:29.811Z,27.37
2022-08-17T12:03:31.989Z,27.62
2022-08-17T12:08:41.799Z,27.74
2022-08-17T12:13:56.131Z,28.10
2022-08-17T12:19:02.868Z,28.69
2022-08-17T12:24:10.266Z,28.81
2022-08-17T12:29:18.363Z,28.82
2022-08-17T12:34:43.071Z,28.69
2022-08-17T12:39:52.790Z,28.55
2022-08-17T12:44:54.586Z,28.79
2022-08-17T12:50:08.240Z,29.62
2022-08-17T12:55:37.061Z,30.17
2022-08-17T13:00:47.401Z,30.30
2022-08-17T13:05:52.478Z,30.30
2022-08-17T13:11:05.048Z,30.28
2022-08-17T13:16:16.872Z,30.29
2022-08-17T13:21:27.692Z,29.79
2022-08-17T13:26:37.147Z,29.49
2022-08-17T13:31:52.889Z,29.55
2022-08-17T13:37:36.737Z,29.27
2022-08-17T13:42:55.572Z,29.70
2022-08-17T13:48:13.706Z,29.92
2022-08-17T13:53:20.304Z,30.15
2022-08-17T13:58:52.310Z,30.49
2022-08-17T14:03:54.009Z,30.68
2022-08-17T14:08:56.215Z,30.84
2022-08-17T14:13:58.828Z,30.58
2022-08-17T14:19:00.519Z,30.19
2022-08-17T14:24:02.257Z,30.46
2022-08-17T14:29:04.032Z,30.74
2022-08-17T14:34:17.180Z,31.36
2022-08-17T14:39:20.947Z,31.14
2022-08-17T14:44:22.648Z,30.85
2022-08-17T14:49:26.019Z,30.45
2022-08-17T14:54:34.019Z,30.00
2022-08-17T14:59:36.181Z,29.50
2022-08-17T15:04:41.999Z,29.52
2022-08-17T15:09:46.854Z,29.27
2022-08-17T15:14:49.358Z,29.33
2022-08-17T15:19:51.106Z,29.10
2022-08-17T15:24:53.585Z,29.12
2022-08-17T15:29:56.161Z,29.32
2022-08-17T15:35:00.419Z,29.80
2022-08-17T15:40:02.293Z,29.82
2022-08-17T15:45:07.766Z,29.70
2022-08-17T15:50:10.137Z,29.32
2022-08-17T15:55:14.813Z,29.36
2022-08-17T16:00:17.471Z,29.83
2022-08-17T16:05:24.052Z,30.25
2022-08-17T16:10:35.495Z,30.63
2022-08-17T16:15:38.232Z,30.97
2022-08-17T16:20:40.018Z,31.09
2022-08-17T16:25:53.876Z,31.47
2022-08-17T16:30:56.011Z,31.71
2022-08-17T16:35:57.737Z,31.78
2022-08-17T16:40:59.860Z,31.71
2022-08-17T16:46:02.799Z,31.78
2022-08-17T16:51:04.733Z,31.68
2022-08-17T16:56:07.304Z,31.41
2022-08-17T17:01:09.019Z,31.13
2022-08-17T17:06:32.768Z,30.89
2022-08-17T17:11:46.840Z,30.68
2022-08-17T17:17:37.356Z,30.43
2022-08-17T17:22:57.358Z,30.32
2022-08-17T17:28:07.865Z,30.20
2022-08-17T17:33:14.762Z,30.21
2022-08-17T17:38:29.399Z,30.22
2022-08-17T17:43:40.122Z,30.12
2022-08-17T17:48:42.548Z,29.62
2022-08-17T17:54:22.224Z,29.46
2022-08-17T17:59:44.405Z,29.23
2022-08-17T18:05:01.084Z,28.94
2022-08-17T18:10:30.497Z,28.66
2022-08-17T18:15:51.449Z,28.33
2022-08-17T18:21:05.182Z,28.04
2022-08-17T18:26:07.008Z,27.67
2022-08-17T18:31:17.654Z,27.31
2022-08-17T18:36:29.487Z,27.07
2022-08-17T18:41:41.247Z,26.84
2022-08-17T18:46:42.960Z,26.64
2022-08-17T18:51:45.899Z,26.41
2022-08-17T18:56:59.150Z,25.97
2022-08-17T19:02:27.212Z,25.60
2022-08-17T19:07:45.348Z,25.46
2022-08-17T19:12:47.171Z,25.34
2022-08-17T19:17:59.485Z,25.18
2022-08-17T19:23:18.076Z,25.12
2022-08-17T19:28:27.017Z,24.98
2022-08-17T19:33:29.711Z,24.88
2022-08-17T19:38:51.599Z,24.86
2022-08-17T19:44:12.835Z,24.82
2022-08-17T19:49:33.225Z,24.66
2022-08-17T19:55:07.293Z,24.57
2022-08-17T20:00:13.172Z,24.58
2022-08-17T20:05:24.096Z,24.52
2022-08-17T20:10:55.329Z,24.37
2022-08-17T20:15:57.837Z,24.15
2022-08-17T20:21:24.039Z,24.01
2022-08-17T20:26:36.929Z,24.11
2022-08-17T20:31:51.902Z,24.09
2022-08-17T20:37:01.813Z,23.72
2022-08-17T20:42:28.055Z,23.69
2022-08-17T20:47:55.155Z,23.63
2022-08-17T20:53:06.053Z,23.65
2022-08-17T20:58:23.372Z,23.71
2022-08-17T21:03:26.673Z,23.71
2022-08-17T21:08:45.268Z,23.63
2022-08-17T21:14:09.234Z,23.57
2022-08-17T21:19:44.388Z,23.38
2022-08-17T21:25:26.953Z,23.25
2022-08-17T21:30:28.566Z,23.20
2022-08-17T21:35:50.683Z,23.02
2022-08-17T21:40:53.541Z,23.04
2022-08-17T21:46:00.761Z,22.96
2022-08-17T21:51:23.913Z,22.97
2022-08-17T21:56:34.604Z,23.07
2022-08-17T22:01:40.725Z,22.97
2022-08-17T22:06:52.491Z,22.97
2022-08-17T22:12:05.079Z,23.00
2022-08-17T22:17:16.848Z,22.88
2022-08-17T22:22:26.427Z,22.87
2022-08-17T22:27:56.769Z,22.82
2022-08-17T22:32:59.832Z,22.88
2022-08-17T22:38:19.934Z,22.78
2022-08-17T22:43:26.293Z,22.74
2022-08-17T22:48:30.461Z,22.62
2022-08-17T22:53:50.640Z,22.52
2022-08-17T22:59:16.309Z,22.47
2022-08-17T23:04:36.684Z,22.30
2022-08-17T23:09:38.972Z,22.26
2022-08-17T23:14:46.105Z,22.24
2022-08-17T23:19:47.815Z,22.15
2022-08-17T23:24:50.644Z,22.07
2022-08-17T23:29:52.433Z,22.01
2022-08-17T23:34:54.149Z,22.02
2022-08-17T23:39:55.954Z,22.03
2022-08-17T23:44:57.754Z,21.87
2022-08-17T23:49:59.491Z,21.79
2022-08-17T23:55:05.755Z,21.64
